sensor_id;sensor_type;location;lat;lon;timestamp;temperature;humidity
19220;DHT22;9744;49.364;7.484;2022-07-11T00:00:05;21.80;83.70
19220;DHT22;9744;49.364;7.484;2022-07-11T00:02:32;21.80;84.00
19220;DHT22;9744;49.364;7.484;2022-07-11T00:05:01;21.70;83.50
19220;DHT22;9744;49.364;7.484;2022-07-11T00:07:29;21.70;83.90
19220;DHT22;9744;49.364;7.484;2022-07-11T00:09:56;21.70;83.40
19220;DHT22;9744;49.364;7.484;2022-07-11T00:12:24;21.70;83.80
19220;DHT22;9744;49.364;7.484;2022-07-11T00:14:52;21.70;83.90
19220;DHT22;9744;49.364;7.484;2022-07-11T00:17:20;21.70;83.90
19220;DHT22;9744;49.364;7.484;2022-07-11T00:19:47;21.70;84.00
19220;DHT22;9744;49.364;7.484;2022-07-11T00:22:15;21.70;84.10
19220;DHT22;9744;49.364;7.484;2022-07-11T00:24:44;21.70;84.70
19220;DHT22;9744;49.364;7.484;2022-07-11T00:27:11;21.70;84.50
19220;DHT22;9744;49.364;7.484;2022-07-11T00:29:39;21.60;85.00
19220;DHT22;9744;49.364;7.484;2022-07-11T00:32:07;21.60;84.80
19220;DHT22;9744;49.364;7.484;2022-07-11T00:34:34;21.60;84.70
19220;DHT22;9744;49.364;7.484;2022-07-11T00:37:02;21.60;84.90
19220;DHT22;9744;49.364;7.484;2022-07-11T00:39:31;21.60;84.90
19220;DHT22;9744;49.364;7.484;2022-07-11T00:41:58;21.60;85.40
19220;DHT22;9744;49.364;7.484;2022-07-11T00:44:25;21.60;85.20
19220;DHT22;9744;49.364;7.484;2022-07-11T00:46:52;21.50;85.10
19220;DHT22;9744;49.364;7.484;2022-07-11T00:49:20;21.50;85.20
19220;DHT22;9744;49.364;7.484;2022-07-11T00:51:48;21.50;85.30
19220;DHT22;9744;49.364;7.484;2022-07-11T00:54:17;21.50;85.40
19220;DHT22;9744;49.364;7.484;2022-07-11T00:56:47;21.50;85.50
19220;DHT22;9744;49.364;7.484;2022-07-11T00:59:15;21.50;85.40
19220;DHT22;9744;49.364;7.484;2022-07-11T01:01:44;21.50;85.80
19220;DHT22;9744;49.364;7.484;2022-07-11T01:04:12;21.50;85.80
19220;DHT22;9744;49.364;7.484;2022-07-11T01:06:39;21.50;85.80
19220;DHT22;9744;49.364;7.484;2022-07-11T01:09:06;21.40;85.80
19220;DHT22;9744;49.364;7.484;2022-07-11T01:11:34;21.40;85.90
19220;DHT22;9744;49.364;7.484;2022-07-11T01:14:02;21.40;85.80
19220;DHT22;9744;49.364;7.484;2022-07-11T01:16:30;21.40;85.80
19220;DHT22;9744;49.364;7.484;2022-07-11T01:18:57;21.40;86.00
19220;DHT22;9744;49.364;7.484;2022-07-11T01:21:27;21.30;86.00
19220;DHT22;9744;49.364;7.484;2022-07-11T01:23:57;21.30;86.10
19220;DHT22;9744;49.364;7.484;2022-07-11T01:26:25;21.30;86.00
19220;DHT22;9744;49.364;7.484;2022-07-11T01:28:53;21.30;86.50
19220;DHT22;9744;49.364;7.484;2022-07-11T01:31:21;21.20;86.60
19220;DHT22;9744;49.364;7.484;2022-07-11T01:33:48;21.20;86.90
19220;DHT22;9744;49.364;7.484;2022-07-11T01:36:15;21.20;87.10
19220;DHT22;9744;49.364;7.484;2022-07-11T01:38:43;21.20;87.10
19220;DHT22;9744;49.364;7.484;2022-07-11T01:41:11;21.10;87.10
19220;DHT22;9744;49.364;7.484;2022-07-11T01:43:38;21.30;87.40
19220;DHT22;9744;49.364;7.484;2022-07-11T01:46:06;21.10;87.40
19220;DHT22;9744;49.364;7.484;2022-07-11T01:48:33;21.10;87.30
19220;DHT22;9744;49.364;7.484;2022-07-11T01:51:00;21.10;87.60
19220;DHT22;9744;49.364;7.484;2022-07-11T01:53:27;21.10;87.40
19220;DHT22;9744;49.364;7.484;2022-07-11T01:55:55;21.10;87.30
19220;DHT22;9744;49.364;7.484;2022-07-11T01:58:23;21.10;87.60
19220;DHT22;9744;49.364;7.484;2022-07-11T02:00:50;21.10;87.50
19220;DHT22;9744;49.364;7.484;2022-07-11T02:03:18;21.10;87.70
19220;DHT22;9744;49.364;7.484;2022-07-11T02:05:45;21.10;87.80
19220;DHT22;9744;49.364;7.484;2022-07-11T02:08:12;21.10;88.00
19220;DHT22;9744;49.364;7.484;2022-07-11T02:10:41;21.10;88.10
19220;DHT22;9744;49.364;7.484;2022-07-11T02:13:10;21.10;88.10
19220;DHT22;9744;49.364;7.484;2022-07-11T02:15:39;21.00;88.30
19220;DHT22;9744;49.364;7.484;2022-07-11T02:18:07;21.00;88.30
19220;DHT22;9744;49.364;7.484;2022-07-11T02:20:34;21.00;88.70
19220;DHT22;9744;49.364;7.484;2022-07-11T02:23:02;21.00;88.60
19220;DHT22;9744;49.364;7.484;2022-07-11T02:25:30;21.00;88.70
19220;DHT22;9744;49.364;7.484;2022-07-11T02:27:58;21.00;88.90
19220;DHT22;9744;49.364;7.484;2022-07-11T02:30:26;21.00;89.00
19220;DHT22;9744;49.364;7.484;2022-07-11T02:32:54;21.00;89.00
19220;DHT22;9744;49.364;7.484;2022-07-11T02:35:21;21.00;89.30
19220;DHT22;9744;49.364;7.484;2022-07-11T02:37:49;20.90;89.20
19220;DHT22;9744;49.364;7.484;2022-07-11T02:40:16;20.90;89.70
19220;DHT22;9744;49.364;7.484;2022-07-11T02:42:43;20.80;89.60
19220;DHT22;9744;49.364;7.484;2022-07-11T02:45:11;20.90;89.70
19220;DHT22;9744;49.364;7.484;2022-07-11T02:47:39;20.80;90.00
19220;DHT22;9744;49.364;7.484;2022-07-11T02:50:11;20.80;90.00
19220;DHT22;9744;49.364;7.484;2022-07-11T02:52:39;20.80;90.20
19220;DHT22;9744;49.364;7.484;2022-07-11T02:55:08;20.80;90.20
19220;DHT22;9744;49.364;7.484;2022-07-11T02:57:36;20.80;90.00
19220;DHT22;9744;49.364;7.484;2022-07-11T03:00:07;20.70;90.80
19220;DHT22;9744;49.364;7.484;2022-07-11T03:02:34;20.70;90.30
19220;DHT22;9744;49.364;7.484;2022-07-11T03:05:01;20.70;90.60
19220;DHT22;9744;49.364;7.484;2022-07-11T03:07:30;20.60;90.70
19220;DHT22;9744;49.364;7.484;2022-07-11T03:09:57;20.60;90.50
19220;DHT22;9744;49.364;7.484;2022-07-11T03:12:24;20.60;91.10
19220;DHT22;9744;49.364;7.484;2022-07-11T03:14:52;20.50;90.80
19220;DHT22;9744;49.364;7.484;2022-07-11T03:17:19;20.50;91.20
19220;DHT22;9744;49.364;7.484;2022-07-11T03:19:47;20.40;91.30
19220;DHT22;9744;49.364;7.484;2022-07-11T03:22:14;20.30;91.40
19220;DHT22;9744;49.364;7.484;2022-07-11T03:24:43;20.40;91.30
19220;DHT22;9744;49.364;7.484;2022-07-11T03:27:11;20.40;91.20
19220;DHT22;9744;49.364;7.484;2022-07-11T03:29:38;20.50;91.20
19220;DHT22;9744;49.364;7.484;2022-07-11T03:32:06;20.50;91.20
19220;DHT22;9744;49.364;7.484;2022-07-11T03:34:33;20.50;91.30
19220;DHT22;9744;49.364;7.484;2022-07-11T03:37:02;20.40;91.80
19220;DHT22;9744;49.364;7.484;2022-07-11T03:39:29;20.40;91.40
19220;DHT22;9744;49.364;7.484;2022-07-11T03:41:58;20.40;91.80
19220;DHT22;9744;49.364;7.484;2022-07-11T03:44:25;20.40;91.60
19220;DHT22;9744;49.364;7.484;2022-07-11T03:46:52;20.50;91.50
19220;DHT22;9744;49.364;7.484;2022-07-11T03:49:19;20.50;91.70
19220;DHT22;9744;49.364;7.484;2022-07-11T03:51:47;20.50;91.50
19220;DHT22;9744;49.364;7.484;2022-07-11T03:54:14;20.50;91.70
19220;DHT22;9744;49.364;7.484;2022-07-11T03:56:41;20.50;92.00
19220;DHT22;9744;49.364;7.484;2022-07-11T03:59:10;20.40;92.00
19220;DHT22;9744;49.364;7.484;2022-07-11T04:01:37;20.20;93.00
19220;DHT22;9744;49.364;7.484;2022-07-11T04:04:04;19.90;93.50
19220;DHT22;9744;49.364;7.484;2022-07-11T04:06:34;19.90;93.10
19220;DHT22;9744;49.364;7.484;2022-07-11T04:09:02;20.00;92.90
19220;DHT22;9744;49.364;7.484;2022-07-11T04:11:29;20.10;92.60
19220;DHT22;9744;49.364;7.484;2022-07-11T04:13:57;20.10;93.10
19220;DHT22;9744;49.364;7.484;2022-07-11T04:16:26;20.10;93.40
19220;DHT22;9744;49.364;7.484;2022-07-11T04:18:54;20.00;93.60
19220;DHT22;9744;49.364;7.484;2022-07-11T04:21:21;20.00;93.30
19220;DHT22;9744;49.364;7.484;2022-07-11T04:23:48;20.00;93.00
19220;DHT22;9744;49.364;7.484;2022-07-11T04:26:15;20.00;93.70
19220;DHT22;9744;49.364;7.484;2022-07-11T04:28:42;20.00;93.20
19220;DHT22;9744;49.364;7.484;2022-07-11T04:31:10;20.10;93.10
19220;DHT22;9744;49.364;7.484;2022-07-11T04:33:38;20.10;93.90
19220;DHT22;9744;49.364;7.484;2022-07-11T04:36:06;20.00;93.90
19220;DHT22;9744;49.364;7.484;2022-07-11T04:38:34;20.00;93.60
19220;DHT22;9744;49.364;7.484;2022-07-11T04:41:01;20.10;93.30
19220;DHT22;9744;49.364;7.484;2022-07-11T04:43:28;20.20;93.00
19220;DHT22;9744;49.364;7.484;2022-07-11T04:45:55;20.30;93.10
19220;DHT22;9744;49.364;7.484;2022-07-11T04:48:23;20.30;93.10
19220;DHT22;9744;49.364;7.484;2022-07-11T04:50:51;20.40;93.20
19220;DHT22;9744;49.364;7.484;2022-07-11T04:53:19;20.40;93.10
19220;DHT22;9744;49.364;7.484;2022-07-11T04:55:46;20.40;93.10
19220;DHT22;9744;49.364;7.484;2022-07-11T04:58:13;20.50;93.10
19220;DHT22;9744;49.364;7.484;2022-07-11T05:00:42;20.50;93.20
19220;DHT22;9744;49.364;7.484;2022-07-11T05:03:09;20.50;93.20
19220;DHT22;9744;49.364;7.484;2022-07-11T05:05:36;20.50;93.30
19220;DHT22;9744;49.364;7.484;2022-07-11T05:08:05;20.50;93.30
19220;DHT22;9744;49.364;7.484;2022-07-11T05:10:32;20.50;93.50
19220;DHT22;9744;49.364;7.484;2022-07-11T05:13:02;20.50;94.00
19220;DHT22;9744;49.364;7.484;2022-07-11T05:15:29;20.50;93.90
19220;DHT22;9744;49.364;7.484;2022-07-11T05:17:56;20.50;93.80
19220;DHT22;9744;49.364;7.484;2022-07-11T05:20:24;20.50;94.40
19220;DHT22;9744;49.364;7.484;2022-07-11T05:22:51;20.50;93.90
19220;DHT22;9744;49.364;7.484;2022-07-11T05:25:19;20.60;93.90
19220;DHT22;9744;49.364;7.484;2022-07-11T05:27:47;20.70;94.00
19220;DHT22;9744;49.364;7.484;2022-07-11T05:30:14;20.70;94.10
19220;DHT22;9744;49.364;7.484;2022-07-11T05:32:41;20.70;94.10
19220;DHT22;9744;49.364;7.484;2022-07-11T05:35:09;20.70;94.10
19220;DHT22;9744;49.364;7.484;2022-07-11T05:37:36;20.80;94.00
19220;DHT22;9744;49.364;7.484;2022-07-11T05:40:04;20.80;94.30
19220;DHT22;9744;49.364;7.484;2022-07-11T05:42:33;20.80;94.00
19220;DHT22;9744;49.364;7.484;2022-07-11T05:45:01;20.90;94.00
19220;DHT22;9744;49.364;7.484;2022-07-11T05:47:28;20.90;94.30
19220;DHT22;9744;49.364;7.484;2022-07-11T05:49:55;20.90;94.50
19220;DHT22;9744;49.364;7.484;2022-07-11T05:52:22;21.00;94.80
19220;DHT22;9744;49.364;7.484;2022-07-11T05:54:50;21.00;94.80
19220;DHT22;9744;49.364;7.484;2022-07-11T05:57:17;21.00;95.20
19220;DHT22;9744;49.364;7.484;2022-07-11T05:59:46;21.10;95.10
19220;DHT22;9744;49.364;7.484;2022-07-11T06:02:14;21.10;95.40
19220;DHT22;9744;49.364;7.484;2022-07-11T06:04:41;21.10;94.80
19220;DHT22;9744;49.364;7.484;2022-07-11T06:07:10;21.20;94.60
19220;DHT22;9744;49.364;7.484;2022-07-11T06:09:58;21.30;95.40
19220;DHT22;9744;49.364;7.484;2022-07-11T06:12:24;21.30;95.40
19220;DHT22;9744;49.364;7.484;2022-07-11T06:14:53;21.40;95.50
19220;DHT22;9744;49.364;7.484;2022-07-11T06:17:20;21.40;94.90
19220;DHT22;9744;49.364;7.484;2022-07-11T06:19:47;21.40;94.70
19220;DHT22;9744;49.364;7.484;2022-07-11T06:22:15;21.50;94.50
19220;DHT22;9744;49.364;7.484;2022-07-11T06:24:42;21.50;94.30
19220;DHT22;9744;49.364;7.484;2022-07-11T06:27:10;21.50;94.20
19220;DHT22;9744;49.364;7.484;2022-07-11T06:29:38;21.60;94.20
19220;DHT22;9744;49.364;7.484;2022-07-11T06:32:08;21.60;94.20
19220;DHT22;9744;49.364;7.484;2022-07-11T06:34:35;21.60;94.20
19220;DHT22;9744;49.364;7.484;2022-07-11T06:37:03;21.70;94.10
19220;DHT22;9744;49.364;7.484;2022-07-11T06:39:31;21.70;94.80
19220;DHT22;9744;49.364;7.484;2022-07-11T06:41:59;21.80;94.80
19220;DHT22;9744;49.364;7.484;2022-07-11T06:44:26;21.80;94.40
19220;DHT22;9744;49.364;7.484;2022-07-11T06:46:53;21.90;94.60
19220;DHT22;9744;49.364;7.484;2022-07-11T06:49:21;21.90;94.80
19220;DHT22;9744;49.364;7.484;2022-07-11T06:51:49;22.00;94.80
19220;DHT22;9744;49.364;7.484;2022-07-11T06:54:16;22.10;94.80
19220;DHT22;9744;49.364;7.484;2022-07-11T06:56:44;22.10;95.30
19220;DHT22;9744;49.364;7.484;2022-07-11T06:59:12;22.20;95.20
19220;DHT22;9744;49.364;7.484;2022-07-11T07:01:40;22.30;95.00
19220;DHT22;9744;49.364;7.484;2022-07-11T07:04:09;22.30;94.90
19220;DHT22;9744;49.364;7.484;2022-07-11T07:06:37;22.40;94.80
19220;DHT22;9744;49.364;7.484;2022-07-11T07:09:05;22.40;94.90
19220;DHT22;9744;49.364;7.484;2022-07-11T07:11:32;22.50;95.10
19220;DHT22;9744;49.364;7.484;2022-07-11T07:13:59;22.60;95.60
19220;DHT22;9744;49.364;7.484;2022-07-11T07:16:27;22.70;95.40
19220;DHT22;9744;49.364;7.484;2022-07-11T07:18:54;22.90;95.80
19220;DHT22;9744;49.364;7.484;2022-07-11T07:21:21;23.10;96.10
19220;DHT22;9744;49.364;7.484;2022-07-11T07:23:50;23.30;95.70
19220;DHT22;9744;49.364;7.484;2022-07-11T07:26:17;23.50;95.80
19220;DHT22;9744;49.364;7.484;2022-07-11T07:28:44;23.70;95.90
19220;DHT22;9744;49.364;7.484;2022-07-11T07:31:12;23.90;95.80
19220;DHT22;9744;49.364;7.484;2022-07-11T07:33:39;24.10;95.60
19220;DHT22;9744;49.364;7.484;2022-07-11T07:36:07;24.30;95.40
19220;DHT22;9744;49.364;7.484;2022-07-11T07:38:35;24.50;94.80
19220;DHT22;9744;49.364;7.484;2022-07-11T07:41:03;24.70;95.00
19220;DHT22;9744;49.364;7.484;2022-07-11T07:43:30;24.90;94.70
19220;DHT22;9744;49.364;7.484;2022-07-11T07:45:58;25.00;94.70
19220;DHT22;9744;49.364;7.484;2022-07-11T07:48:25;25.20;94.70
19220;DHT22;9744;49.364;7.484;2022-07-11T07:50:52;25.40;94.20
19220;DHT22;9744;49.364;7.484;2022-07-11T07:53:20;25.80;94.00
19220;DHT22;9744;49.364;7.484;2022-07-11T07:55:47;26.00;93.50
19220;DHT22;9744;49.364;7.484;2022-07-11T07:58:16;26.20;93.40
19220;DHT22;9744;49.364;7.484;2022-07-11T08:00:44;26.40;93.00
19220;DHT22;9744;49.364;7.484;2022-07-11T08:03:28;26.60;92.80
19220;DHT22;9744;49.364;7.484;2022-07-11T08:05:56;26.70;92.40
19220;DHT22;9744;49.364;7.484;2022-07-11T08:08:24;26.70;92.40
19220;DHT22;9744;49.364;7.484;2022-07-11T08:10:51;26.70;92.00
19220;DHT22;9744;49.364;7.484;2022-07-11T08:13:20;26.60;92.30
19220;DHT22;9744;49.364;7.484;2022-07-11T08:15:47;26.60;92.30
19220;DHT22;9744;49.364;7.484;2022-07-11T08:18:14;26.50;92.30
19220;DHT22;9744;49.364;7.484;2022-07-11T08:20:42;26.60;92.10
19220;DHT22;9744;49.364;7.484;2022-07-11T08:23:09;26.70;91.90
19220;DHT22;9744;49.364;7.484;2022-07-11T08:25:36;26.80;91.80
19220;DHT22;9744;49.364;7.484;2022-07-11T08:28:04;27.00;91.70
19220;DHT22;9744;49.364;7.484;2022-07-11T08:30:32;27.00;91.60
19220;DHT22;9744;49.364;7.484;2022-07-11T08:33:00;27.00;91.40
19220;DHT22;9744;49.364;7.484;2022-07-11T08:35:27;27.00;91.30
19220;DHT22;9744;49.364;7.484;2022-07-11T08:37:54;26.90;91.30
19220;DHT22;9744;49.364;7.484;2022-07-11T08:40:22;26.90;91.40
19220;DHT22;9744;49.364;7.484;2022-07-11T08:42:51;26.80;91.20
19220;DHT22;9744;49.364;7.484;2022-07-11T08:45:21;26.80;91.20
19220;DHT22;9744;49.364;7.484;2022-07-11T08:47:53;26.80;91.30
19220;DHT22;9744;49.364;7.484;2022-07-11T08:50:22;26.80;91.40
19220;DHT22;9744;49.364;7.484;2022-07-11T08:52:50;26.80;91.40
19220;DHT22;9744;49.364;7.484;2022-07-11T08:55:18;26.80;91.10
19220;DHT22;9744;49.364;7.484;2022-07-11T08:57:46;26.80;91.10
19220;DHT22;9744;49.364;7.484;2022-07-11T09:00:14;26.80;91.10
19220;DHT22;9744;49.364;7.484;2022-07-11T09:02:43;26.80;91.10
19220;DHT22;9744;49.364;7.484;2022-07-11T09:05:12;26.80;91.10
19220;DHT22;9744;49.364;7.484;2022-07-11T09:07:43;26.80;91.10
19220;DHT22;9744;49.364;7.484;2022-07-11T09:10:12;26.70;91.00
19220;DHT22;9744;49.364;7.484;2022-07-11T09:13:00;26.70;91.20
19220;DHT22;9744;49.364;7.484;2022-07-11T09:15:32;26.70;91.30
19220;DHT22;9744;49.364;7.484;2022-07-11T09:17:59;26.70;91.30
19220;DHT22;9744;49.364;7.484;2022-07-11T09:20:28;26.60;91.20
19220;DHT22;9744;49.364;7.484;2022-07-11T09:23:22;26.50;91.30
19220;DHT22;9744;49.364;7.484;2022-07-11T09:26:08;26.50;91.30
19220;DHT22;9744;49.364;7.484;2022-07-11T09:28:36;26.50;91.60
19220;DHT22;9744;49.364;7.484;2022-07-11T09:31:15;26.50;91.60
19220;DHT22;9744;49.364;7.484;2022-07-11T09:34:00;26.50;91.50
19220;DHT22;9744;49.364;7.484;2022-07-11T09:36:39;26.50;91.60
19220;DHT22;9744;49.364;7.484;2022-07-11T09:39:07;26.50;91.50
19220;DHT22;9744;49.364;7.484;2022-07-11T09:41:36;26.60;91.30
19220;DHT22;9744;49.364;7.484;2022-07-11T09:44:13;26.70;91.20
19220;DHT22;9744;49.364;7.484;2022-07-11T09:46:41;26.80;91.20
19220;DHT22;9744;49.364;7.484;2022-07-11T09:49:09;26.90;91.10
19220;DHT22;9744;49.364;7.484;2022-07-11T09:51:39;26.90;91.20
19220;DHT22;9744;49.364;7.484;2022-07-11T09:54:07;26.90;91.20
19220;DHT22;9744;49.364;7.484;2022-07-11T09:56:38;26.90;91.10
19220;DHT22;9744;49.364;7.484;2022-07-11T09:59:08;27.00;91.40
19220;DHT22;9744;49.364;7.484;2022-07-11T10:01:35;27.00;91.50
19220;DHT22;9744;49.364;7.484;2022-07-11T10:04:05;26.90;91.40
19220;DHT22;9744;49.364;7.484;2022-07-11T10:06:33;26.90;91.20
19220;DHT22;9744;49.364;7.484;2022-07-11T10:09:02;26.90;91.30
19220;DHT22;9744;49.364;7.484;2022-07-11T10:11:31;26.90;91.30
19220;DHT22;9744;49.364;7.484;2022-07-11T10:13:59;26.90;91.30
19220;DHT22;9744;49.364;7.484;2022-07-11T10:16:40;26.90;91.40
19220;DHT22;9744;49.364;7.484;2022-07-11T10:19:23;26.90;91.30
19220;DHT22;9744;49.364;7.484;2022-07-11T10:21:59;27.00;91.30
19220;DHT22;9744;49.364;7.484;2022-07-11T10:24:40;27.10;91.40
19220;DHT22;9744;49.364;7.484;2022-07-11T10:27:18;27.10;91.30
19220;DHT22;9744;49.364;7.484;2022-07-11T10:29:50;27.20;91.40
19220;DHT22;9744;49.364;7.484;2022-07-11T10:32:17;27.30;91.50
19220;DHT22;9744;49.364;7.484;2022-07-11T10:34:46;27.30;91.50
19220;DHT22;9744;49.364;7.484;2022-07-11T10:37:13;27.50;91.40
19220;DHT22;9744;49.364;7.484;2022-07-11T10:39:57;27.60;91.30
19220;DHT22;9744;49.364;7.484;2022-07-11T10:42:39;27.80;91.20
19220;DHT22;9744;49.364;7.484;2022-07-11T10:45:08;27.90;90.80
19220;DHT22;9744;49.364;7.484;2022-07-11T10:47:40;28.10;90.70
19220;DHT22;9744;49.364;7.484;2022-07-11T10:50:18;28.20;90.80
19220;DHT22;9744;49.364;7.484;2022-07-11T10:52:56;28.30;90.80
19220;DHT22;9744;49.364;7.484;2022-07-11T10:55:33;28.30;90.90
19220;DHT22;9744;49.364;7.484;2022-07-11T10:58:06;28.40;90.60
19220;DHT22;9744;49.364;7.484;2022-07-11T11:00:35;28.40;90.70
19220;DHT22;9744;49.364;7.484;2022-07-11T11:03:04;28.50;90.60
19220;DHT22;9744;49.364;7.484;2022-07-11T11:05:56;28.60;90.50
19220;DHT22;9744;49.364;7.484;2022-07-11T11:08:45;28.60;90.40
19220;DHT22;9744;49.364;7.484;2022-07-11T11:11:39;28.60;90.30
19220;DHT22;9744;49.364;7.484;2022-07-11T11:14:21;28.70;90.30
19220;DHT22;9744;49.364;7.484;2022-07-11T11:16:49;28.70;90.30
19220;DHT22;9744;49.364;7.484;2022-07-11T11:19:53;28.80;90.20
19220;DHT22;9744;49.364;7.484;2022-07-11T11:22:22;28.90;90.10
19220;DHT22;9744;49.364;7.484;2022-07-11T11:24:51;29.10;90.20
19220;DHT22;9744;49.364;7.484;2022-07-11T11:27:21;29.20;90.00
19220;DHT22;9744;49.364;7.484;2022-07-11T11:29:50;29.30;89.80
19220;DHT22;9744;49.364;7.484;2022-07-11T11:32:19;29.40;89.70
19220;DHT22;9744;49.364;7.484;2022-07-11T11:34:47;29.50;89.90
19220;DHT22;9744;49.364;7.484;2022-07-11T11:37:16;29.60;89.70
19220;DHT22;9744;49.364;7.484;2022-07-11T11:39:44;29.80;89.30
19220;DHT22;9744;49.364;7.484;2022-07-11T11:42:16;30.00;89.10
19220;DHT22;9744;49.364;7.484;2022-07-11T11:44:53;30.30;89.30
19220;DHT22;9744;49.364;7.484;2022-07-11T11:47:22;30.60;89.50
19220;DHT22;9744;49.364;7.484;2022-07-11T11:49:50;30.80;88.40
19220;DHT22;9744;49.364;7.484;2022-07-11T11:52:17;31.10;87.40
19220;DHT22;9744;49.364;7.484;2022-07-11T11:54:51;31.10;87.40
19220;DHT22;9744;49.364;7.484;2022-07-11T11:57:20;31.30;86.70
19220;DHT22;9744;49.364;7.484;2022-07-11T11:59:48;31.50;86.50
19220;DHT22;9744;49.364;7.484;2022-07-11T12:02:23;31.70;86.60
19220;DHT22;9744;49.364;7.484;2022-07-11T12:04:51;31.90;86.30
19220;DHT22;9744;49.364;7.484;2022-07-11T12:07:26;32.10;85.70
19220;DHT22;9744;49.364;7.484;2022-07-11T12:09:55;32.30;85.00
19220;DHT22;9744;49.364;7.484;2022-07-11T12:12:24;32.60;83.60
19220;DHT22;9744;49.364;7.484;2022-07-11T12:15:29;33.00;82.40
19220;DHT22;9744;49.364;7.484;2022-07-11T12:18:03;33.30;82.00
19220;DHT22;9744;49.364;7.484;2022-07-11T12:20:36;33.50;82.20
19220;DHT22;9744;49.364;7.484;2022-07-11T12:23:05;33.60;83.00
19220;DHT22;9744;49.364;7.484;2022-07-11T12:25:32;33.80;81.70
19220;DHT22;9744;49.364;7.484;2022-07-11T12:28:00;34.00;78.70
19220;DHT22;9744;49.364;7.484;2022-07-11T12:30:27;34.10;79.00
19220;DHT22;9744;49.364;7.484;2022-07-11T12:33:10;34.20;79.10
19220;DHT22;9744;49.364;7.484;2022-07-11T12:35:52;34.30;79.20
19220;DHT22;9744;49.364;7.484;2022-07-11T12:38:20;34.30;79.20
19220;DHT22;9744;49.364;7.484;2022-07-11T12:40:59;34.20;78.70
19220;DHT22;9744;49.364;7.484;2022-07-11T12:43:49;34.20;78.50
19220;DHT22;9744;49.364;7.484;2022-07-11T12:46:34;34.20;78.30
19220;DHT22;9744;49.364;7.484;2022-07-11T12:49:05;34.20;78.40
19220;DHT22;9744;49.364;7.484;2022-07-11T12:51:34;34.20;78.30
19220;DHT22;9744;49.364;7.484;2022-07-11T12:54:06;34.30;78.10
19220;DHT22;9744;49.364;7.484;2022-07-11T12:56:35;34.40;77.50
19220;DHT22;9744;49.364;7.484;2022-07-11T12:59:03;34.30;77.00
19220;DHT22;9744;49.364;7.484;2022-07-11T13:01:31;34.30;78.20
19220;DHT22;9744;49.364;7.484;2022-07-11T13:03:58;34.30;77.90
19220;DHT22;9744;49.364;7.484;2022-07-11T13:06:27;34.30;77.70
19220;DHT22;9744;49.364;7.484;2022-07-11T13:09:14;34.40;77.00
19220;DHT22;9744;49.364;7.484;2022-07-11T13:11:41;34.50;77.20
19220;DHT22;9744;49.364;7.484;2022-07-11T13:14:09;34.60;77.80
19220;DHT22;9744;49.364;7.484;2022-07-11T13:16:50;34.70;77.20
19220;DHT22;9744;49.364;7.484;2022-07-11T13:19:17;34.80;78.00
19220;DHT22;9744;49.364;7.484;2022-07-11T13:21:45;35.00;76.50
19220;DHT22;9744;49.364;7.484;2022-07-11T13:24:13;35.00;75.70
19220;DHT22;9744;49.364;7.484;2022-07-11T13:26:40;34.90;75.40
19220;DHT22;9744;49.364;7.484;2022-07-11T13:29:07;34.90;76.10
19220;DHT22;9744;49.364;7.484;2022-07-11T13:31:34;34.80;76.30
19220;DHT22;9744;49.364;7.484;2022-07-11T13:34:02;34.80;76.30
19220;DHT22;9744;49.364;7.484;2022-07-11T13:36:29;34.90;76.50
19220;DHT22;9744;49.364;7.484;2022-07-11T13:38:58;34.90;76.70
19220;DHT22;9744;49.364;7.484;2022-07-11T13:41:25;34.90;76.50
19220;DHT22;9744;49.364;7.484;2022-07-11T13:43:52;35.00;75.10
19220;DHT22;9744;49.364;7.484;2022-07-11T13:46:20;34.90;74.40
19220;DHT22;9744;49.364;7.484;2022-07-11T13:48:47;34.70;75.20
19220;DHT22;9744;49.364;7.484;2022-07-11T13:51:16;34.60;75.10
19220;DHT22;9744;49.364;7.484;2022-07-11T13:53:43;34.50;74.60
19220;DHT22;9744;49.364;7.484;2022-07-11T13:56:12;34.40;75.30
19220;DHT22;9744;49.364;7.484;2022-07-11T13:58:39;34.30;75.90
19220;DHT22;9744;49.364;7.484;2022-07-11T14:01:06;34.30;75.60
19220;DHT22;9744;49.364;7.484;2022-07-11T14:03:33;34.30;75.00
19220;DHT22;9744;49.364;7.484;2022-07-11T14:06:03;34.30;75.60
19220;DHT22;9744;49.364;7.484;2022-07-11T14:08:30;34.20;76.10
19220;DHT22;9744;49.364;7.484;2022-07-11T14:10:58;34.20;75.70
19220;DHT22;9744;49.364;7.484;2022-07-11T14:13:26;34.00;75.20
19220;DHT22;9744;49.364;7.484;2022-07-11T14:15:54;33.90;74.90
19220;DHT22;9744;49.364;7.484;2022-07-11T14:18:21;33.80;74.90
19220;DHT22;9744;49.364;7.484;2022-07-11T14:20:48;33.60;74.80
19220;DHT22;9744;49.364;7.484;2022-07-11T14:23:15;33.30;75.00
19220;DHT22;9744;49.364;7.484;2022-07-11T14:25:44;33.10;75.30
19220;DHT22;9744;49.364;7.484;2022-07-11T14:28:12;33.00;76.00
19220;DHT22;9744;49.364;7.484;2022-07-11T14:30:40;32.80;75.50
19220;DHT22;9744;49.364;7.484;2022-07-11T14:33:07;32.70;75.90
19220;DHT22;9744;49.364;7.484;2022-07-11T14:35:35;32.70;76.90
19220;DHT22;9744;49.364;7.484;2022-07-11T14:38:02;32.80;77.20
19220;DHT22;9744;49.364;7.484;2022-07-11T14:40:30;32.90;77.00
19220;DHT22;9744;49.364;7.484;2022-07-11T14:42:57;33.00;76.20
19220;DHT22;9744;49.364;7.484;2022-07-11T14:45:24;33.00;76.10
19220;DHT22;9744;49.364;7.484;2022-07-11T14:47:52;33.00;75.40
19220;DHT22;9744;49.364;7.484;2022-07-11T14:50:20;33.10;76.00
19220;DHT22;9744;49.364;7.484;2022-07-11T14:52:47;33.10;76.70
19220;DHT22;9744;49.364;7.484;2022-07-11T14:55:14;33.40;76.50
19220;DHT22;9744;49.364;7.484;2022-07-11T14:57:42;33.50;75.10
19220;DHT22;9744;49.364;7.484;2022-07-11T15:00:10;33.70;75.60
19220;DHT22;9744;49.364;7.484;2022-07-11T15:02:37;33.90;75.30
19220;DHT22;9744;49.364;7.484;2022-07-11T15:05:23;34.20;75.30
19220;DHT22;9744;49.364;7.484;2022-07-11T15:07:50;34.50;74.20
19220;DHT22;9744;49.364;7.484;2022-07-11T15:10:35;34.70;74.60
19220;DHT22;9744;49.364;7.484;2022-07-11T15:13:19;34.80;74.40
19220;DHT22;9744;49.364;7.484;2022-07-11T15:15:47;34.90;74.80
19220;DHT22;9744;49.364;7.484;2022-07-11T15:18:14;35.00;74.30
19220;DHT22;9744;49.364;7.484;2022-07-11T15:20:43;35.30;74.00
19220;DHT22;9744;49.364;7.484;2022-07-11T15:23:11;35.50;73.40
19220;DHT22;9744;49.364;7.484;2022-07-11T15:25:38;35.80;72.30
19220;DHT22;9744;49.364;7.484;2022-07-11T15:28:05;35.90;72.50
19220;DHT22;9744;49.364;7.484;2022-07-11T15:30:32;36.00;71.20
19220;DHT22;9744;49.364;7.484;2022-07-11T15:33:00;36.00;71.80
19220;DHT22;9744;49.364;7.484;2022-07-11T15:35:27;36.00;71.40
19220;DHT22;9744;49.364;7.484;2022-07-11T15:37:56;35.90;71.20
19220;DHT22;9744;49.364;7.484;2022-07-11T15:40:23;35.80;71.40
19220;DHT22;9744;49.364;7.484;2022-07-11T15:42:50;35.80;71.60
19220;DHT22;9744;49.364;7.484;2022-07-11T15:45:18;35.80;71.50
19220;DHT22;9744;49.364;7.484;2022-07-11T15:47:45;35.90;71.30
19220;DHT22;9744;49.364;7.484;2022-07-11T15:50:12;35.90;70.50
19220;DHT22;9744;49.364;7.484;2022-07-11T15:52:43;35.80;70.40
19220;DHT22;9744;49.364;7.484;2022-07-11T15:55:11;35.80;70.10
19220;DHT22;9744;49.364;7.484;2022-07-11T15:57:38;35.70;70.00